createdAt,value
2019-01-16T08:07:18.700Z,5.90
2019-01-16T08:08:18.693Z,5.60
2019-01-16T08:09:18.644Z,7.00
2019-01-16T08:10:18.657Z,6.70
2019-01-16T08:11:18.622Z,6.00
2019-01-16T08:12:18.608Z,6.70
2019-01-16T08:13:18.634Z,6.60
2019-01-16T08:14:18.587Z,7.30
2019-01-16T08:15:18.599Z,6.90
2019-01-16T08:16:18.574Z,7.20
2019-01-16T08:17:18.564Z,7.30
2019-01-16T08:18:18.545Z,7.70
2019-01-16T08:19:18.531Z,8.00
2019-01-16T08:20:24.919Z,8.50
2019-01-16T08:21:19.520Z,9.90
2019-01-16T08:22:18.515Z,9.40
2019-01-16T08:23:18.496Z,10.30
2019-01-16T08:24:18.477Z,11.30
2019-01-16T08:25:18.490Z,9.80
2019-01-16T08:26:18.455Z,10.50
2019-01-16T08:27:18.445Z,11.70
2019-01-16T08:28:18.438Z,11.20
2019-01-16T08:29:18.433Z,11.30
2019-01-16T08:30:18.440Z,12.10
2019-01-16T08:31:18.405Z,12.80
2019-01-16T08:32:18.398Z,11.20
2019-01-16T08:33:18.385Z,12.30
2019-01-16T08:34:18.369Z,12.30
2019-01-16T08:35:18.380Z,13.60
2019-01-16T08:36:18.364Z,12.80
2019-01-16T08:37:18.340Z,13.20
2019-01-16T08:38:18.334Z,12.70
2019-01-16T08:39:18.332Z,13.40
2019-01-16T08:40:18.328Z,12.10
2019-01-16T08:41:18.295Z,11.90
2019-01-16T08:42:18.283Z,11.90
2019-01-16T08:43:18.273Z,13.20
2019-01-16T08:44:18.277Z,12.00
2019-01-16T08:45:18.273Z,13.20
2019-01-16T08:46:18.239Z,12.30
2019-01-16T08:47:18.228Z,12.30
2019-01-16T08:48:18.219Z,14.60
2019-01-16T08:49:18.207Z,12.30
2019-01-16T08:50:18.223Z,12.40
2019-01-16T08:51:18.197Z,12.20
2019-01-16T08:52:18.177Z,12.80
2019-01-16T08:53:18.164Z,12.90
2019-01-16T08:54:18.181Z,12.50
2019-01-16T08:55:18.209Z,11.70
2019-01-16T08:56:18.131Z,13.40
2019-01-16T08:57:18.132Z,11.90
2019-01-16T08:58:18.250Z,11.40
2019-01-16T08:59:18.179Z,12.40
2019-01-16T09:00:18.090Z,11.40
2019-01-16T09:01:18.100Z,11.40
2019-01-16T09:02:18.069Z,11.20
2019-01-16T09:03:18.058Z,12.00
2019-01-16T09:04:18.047Z,11.30
2019-01-16T09:05:18.052Z,14.50
2019-01-16T09:06:18.045Z,11.50
2019-01-16T09:07:18.012Z,11.50
2019-01-16T09:08:18.001Z,11.10
2019-01-16T09:09:18.003Z,11.80
2019-01-16T09:10:18.662Z,12.70
2019-01-16T09:11:18.004Z,10.80
2019-01-16T09:12:17.960Z,12.60
2019-01-16T09:13:17.954Z,11.40
2019-01-16T09:14:17.943Z,12.10
2019-01-16T09:15:17.926Z,11.50
2019-01-16T09:16:18.040Z,12.40
2019-01-16T09:17:17.908Z,12.00
2019-01-16T09:18:17.893Z,11.50
2019-01-16T09:19:17.890Z,11.50
2019-01-16T09:20:17.896Z,10.50
2019-01-16T09:21:17.883Z,10.60
2019-01-16T09:22:17.852Z,12.30
2019-01-16T09:23:17.847Z,10.80
2019-01-16T09:24:17.829Z,10.90
2019-01-16T09:25:17.833Z,12.70
2019-01-16T09:26:17.829Z,11.50
2019-01-16T09:27:17.795Z,11.40
2019-01-16T09:28:17.783Z,11.60
2019-01-16T09:29:17.773Z,12.60
2019-01-16T09:30:17.763Z,11.90
2019-01-16T09:31:17.786Z,12.00
2019-01-16T09:32:17.746Z,11.40
2019-01-16T09:33:17.731Z,10.30
2019-01-16T09:34:17.720Z,11.40
2019-01-16T09:35:17.708Z,11.40
2019-01-16T09:36:17.722Z,13.40
2019-01-16T09:37:17.688Z,11.70
2019-01-16T09:38:17.695Z,11.20
2019-01-16T09:39:17.666Z,11.70
2019-01-16T09:40:17.656Z,11.60
2019-01-16T09:41:17.666Z,10.80
2019-01-16T09:42:17.635Z,11.10
2019-01-16T09:43:17.631Z,11.70
2019-01-16T09:44:17.612Z,10.80
2019-01-16T09:45:17.603Z,10.90
2019-01-16T09:46:17.641Z,11.80
2019-01-16T09:47:17.581Z,12.20
2019-01-16T09:48:17.576Z,12.20
2019-01-16T09:49:17.558Z,13.30
2019-01-16T09:50:17.547Z,13.70
2019-01-16T09:51:17.535Z,13.30
2019-01-16T09:52:17.548Z,14.50
2019-01-16T09:53:17.515Z,13.30
2019-01-16T09:54:17.513Z,14.50
2019-01-16T09:55:17.503Z,14.50
2019-01-16T09:56:17.485Z,12.30
2019-01-16T09:57:17.499Z,14.60
2019-01-16T09:58:17.464Z,13.60
2019-01-16T09:59:17.450Z,14.50
2019-01-16T10:00:17.438Z,13.50
2019-01-16T10:01:17.432Z,12.80
2019-01-16T10:02:17.477Z,10.80
2019-01-16T10:03:17.406Z,13.60
2019-01-16T10:04:17.398Z,11.60
2019-01-16T10:05:17.385Z,11.60
2019-01-16T10:06:17.384Z,10.50
2019-01-16T10:07:17.393Z,9.60
2019-01-16T10:08:17.363Z,11.60
2019-01-16T10:09:17.387Z,11.20
2019-01-16T10:10:17.346Z,11.20
2019-01-16T10:31:18.778Z,8.70
2019-01-16T10:31:45.820Z,12.00
2019-01-16T10:32:45.971Z,12.70
2019-01-16T10:33:45.797Z,11.10
2019-01-16T10:34:45.810Z,10.20
2019-01-16T10:35:45.781Z,11.20
2019-01-16T10:36:45.777Z,10.40
2019-01-16T10:37:45.780Z,11.60
2019-01-16T10:38:45.748Z,11.70
2019-01-16T10:39:45.734Z,11.60
2019-01-16T10:40:45.720Z,10.40
2019-01-16T10:41:45.709Z,10.00
2019-01-16T10:42:45.720Z,9.70
2019-01-16T10:43:45.694Z,8.50
2019-01-16T10:44:45.674Z,11.00
2019-01-16T10:45:45.665Z,10.80
2019-01-16T10:46:45.661Z,12.00
2019-01-16T10:47:45.666Z,8.80
2019-01-16T10:48:49.701Z,9.30
2019-01-16T10:49:45.623Z,9.80
2019-01-16T10:50:45.611Z,10.20
2019-01-16T10:51:45.601Z,9.80
2019-01-16T10:52:45.613Z,9.50
2019-01-16T10:53:45.583Z,10.30
2019-01-16T10:54:45.572Z,9.50
2019-01-16T10:55:45.556Z,10.70
2019-01-16T10:56:45.550Z,8.30
2019-01-16T10:57:45.604Z,8.70
2019-01-16T10:58:45.522Z,9.50
2019-01-16T10:59:45.539Z,8.70
2019-01-16T11:00:45.517Z,10.80
2019-01-16T11:01:45.490Z,11.40
2019-01-16T11:02:45.525Z,10.00
2019-01-16T11:03:45.490Z,9.10
2019-01-16T11:04:45.489Z,8.30
2019-01-16T11:05:45.445Z,9.20
2019-01-16T11:06:45.443Z,13.00
2019-01-16T11:07:45.437Z,12.40
2019-01-16T11:08:45.571Z,11.30
2019-01-16T11:09:45.402Z,11.30
2019-01-16T11:10:45.399Z,9.00
2019-01-16T11:11:45.385Z,10.50
2019-01-16T11:12:45.441Z,9.20
2019-01-16T11:13:45.388Z,9.10
2019-01-16T11:14:45.351Z,9.30
2019-01-16T11:15:45.349Z,11.00
2019-01-16T11:16:45.321Z,9.00
2019-01-16T11:17:45.316Z,8.90
2019-01-16T11:18:45.503Z,9.00
2019-01-16T11:19:46.095Z,9.20
2019-01-16T11:20:45.282Z,10.20
2019-01-16T11:21:45.266Z,8.20
2019-01-16T11:22:45.255Z,8.30
2019-01-16T11:23:45.302Z,9.10
2019-01-16T11:24:45.248Z,10.90
2019-01-16T11:25:45.225Z,9.50
2019-01-16T11:26:45.262Z,11.50
2019-01-16T11:27:45.206Z,9.60
2019-01-16T11:28:45.232Z,8.10
2019-01-16T11:29:45.252Z,8.70
2019-01-16T11:30:45.179Z,8.90
2019-01-16T11:31:45.154Z,9.40
2019-01-16T11:32:45.144Z,10.10
2019-01-16T11:33:45.154Z,10.20
2019-01-16T11:34:45.122Z,9.60
2019-01-16T11:35:45.115Z,9.30
2019-01-16T11:36:45.100Z,9.40
2019-01-16T11:37:45.088Z,9.10
2019-01-16T11:38:45.109Z,8.20
2019-01-16T11:39:45.073Z,9.80
2019-01-16T11:40:45.061Z,10.30
2019-01-16T11:41:45.043Z,9.10
2019-01-16T11:42:45.050Z,9.10
2019-01-16T11:43:45.054Z,9.70
2019-01-16T11:44:45.018Z,10.10
2019-01-16T11:45:45.008Z,11.60
2019-01-16T11:46:45.125Z,9.10
2019-01-16T11:47:44.978Z,8.90
2019-01-16T11:48:44.985Z,9.60
2019-01-16T11:49:44.964Z,9.40
2019-01-16T11:50:44.970Z,9.00
2019-01-16T11:51:44.968Z,10.00
2019-01-16T11:52:44.928Z,11.70
2019-01-16T11:53:44.911Z,9.20
2019-01-16T11:54:44.925Z,7.90
2019-01-16T11:55:44.901Z,8.40
2019-01-16T11:56:44.911Z,7.50
2019-01-16T11:57:44.931Z,8.60
2019-01-16T11:58:44.887Z,10.10
2019-01-16T11:59:44.854Z,8.70
2019-01-16T12:00:44.836Z,8.40
2019-01-16T12:01:45.670Z,10.60
2019-01-16T12:02:44.846Z,9.80
2019-01-16T12:03:44.820Z,6.60
2019-01-16T12:04:44.841Z,7.90
2019-01-16T12:05:44.781Z,7.70
2019-01-16T12:06:45.270Z,10.90
2019-01-16T12:07:44.774Z,7.60
2019-01-16T12:08:44.749Z,7.70
2019-01-16T12:09:44.778Z,9.50
2019-01-16T12:10:44.729Z,8.00
2019-01-16T12:11:44.784Z,8.20
2019-01-16T12:12:44.701Z,9.50
2019-01-16T12:13:44.709Z,9.10
2019-01-16T12:14:44.717Z,8.60
2019-01-16T12:15:44.687Z,8.00
2019-01-16T12:16:44.676Z,8.40
2019-01-16T12:17:44.653Z,6.60
2019-01-16T12:18:44.643Z,9.80
2019-01-16T12:19:44.648Z,11.60
2019-01-16T12:20:44.614Z,11.20
2019-01-16T12:21:44.607Z,9.50
2019-01-16T12:22:44.594Z,9.00
2019-01-16T12:23:44.579Z,9.70
2019-01-16T12:24:44.596Z,8.90
2019-01-16T12:25:44.559Z,7.90
2019-01-16T12:26:44.551Z,7.00
2019-01-16T12:27:44.534Z,10.00
2019-01-16T12:28:44.525Z,9.80
2019-01-16T12:29:44.551Z,11.90
2019-01-16T12:30:44.501Z,8.30
2019-01-16T12:31:44.490Z,10.50
2019-01-16T12:32:44.494Z,9.50
2019-01-16T12:33:44.471Z,9.90
2019-01-16T12:34:44.486Z,8.40
2019-01-16T12:35:44.447Z,10.00
2019-01-16T12:36:44.437Z,7.20
2019-01-16T12:37:44.487Z,9.00
2019-01-16T12:38:44.428Z,9.20
2019-01-16T12:39:44.428Z,11.90
2019-01-16T12:40:44.396Z,7.60
2019-01-16T12:41:44.377Z,7.60
2019-01-16T12:42:44.367Z,8.10
2019-01-16T12:43:44.363Z,10.10
2019-01-16T12:44:44.387Z,7.90
2019-01-16T12:45:44.369Z,10.10
2019-01-16T12:46:44.324Z,9.70
2019-01-16T12:47:44.310Z,7.40
2019-01-16T12:48:44.306Z,8.00
2019-01-16T12:49:44.290Z,9.30
2019-01-16T12:50:44.363Z,10.60
2019-01-16T12:51:44.265Z,8.40
2019-01-16T12:52:46.354Z,9.60
2019-01-16T12:53:45.006Z,7.50
2019-01-16T12:54:44.237Z,9.10
2019-01-16T12:55:44.248Z,8.40
2019-01-16T12:56:44.249Z,7.80
2019-01-16T12:57:44.198Z,9.80
2019-01-16T12:58:44.194Z,8.70
2019-01-16T12:59:44.184Z,10.40
2019-01-16T13:00:44.196Z,10.60
2019-01-16T13:01:44.154Z,9.30
2019-01-16T13:02:44.151Z,9.60
2019-01-16T13:03:44.132Z,11.00
2019-01-16T13:04:44.123Z,9.70
2019-01-16T13:05:44.141Z,8.50
2019-01-16T13:06:44.122Z,9.20
2019-01-16T13:07:44.122Z,9.50
2019-01-16T13:08:44.084Z,9.00
2019-01-16T13:09:44.066Z,7.70
2019-01-16T13:10:44.147Z,9.10
2019-01-16T13:11:44.112Z,9.60
2019-01-16T13:12:44.030Z,8.60
2019-01-16T13:13:44.020Z,7.00
2019-01-16T13:14:44.066Z,8.90
2019-01-16T13:15:44.096Z,10.20
2019-01-16T13:16:43.987Z,10.70
2019-01-16T13:17:43.977Z,7.80
2019-01-16T13:18:43.991Z,9.60
2019-01-16T13:19:43.957Z,8.50
2019-01-16T13:20:43.973Z,9.70
2019-01-16T13:21:43.931Z,10.90
2019-01-16T13:22:46.154Z,10.20
2019-01-16T13:23:43.917Z,7.70
2019-01-16T13:24:43.903Z,9.10
2019-01-16T13:25:43.924Z,7.40
2019-01-16T13:26:43.878Z,8.80
2019-01-16T13:27:43.905Z,9.80
2019-01-16T13:28:43.869Z,7.90
2019-01-16T13:29:43.843Z,8.40
2019-01-16T13:30:43.919Z,9.20
2019-01-16T13:31:43.819Z,6.70
2019-01-16T13:32:43.808Z,7.80
2019-01-16T13:33:43.806Z,7.90
2019-01-16T13:34:43.786Z,7.40
2019-01-16T13:35:43.774Z,8.20
2019-01-16T13:36:43.807Z,8.00
2019-01-16T13:37:43.777Z,6.20
2019-01-16T13:38:43.748Z,8.80
2019-01-16T13:39:43.770Z,9.40
2019-01-16T13:40:43.732Z,6.10
2019-01-16T13:41:43.756Z,10.10
2019-01-16T13:42:43.706Z,8.80
2019-01-16T13:43:43.719Z,7.90
2019-01-16T13:44:43.675Z,8.40
2019-01-16T13:45:43.710Z,10.20
2019-01-16T13:46:43.701Z,8.60
2019-01-16T13:47:43.642Z,8.10
2019-01-16T13:48:43.681Z,9.70
2019-01-16T13:49:43.629Z,10.60
2019-01-16T13:50:43.611Z,9.20
2019-01-16T13:51:46.412Z,7.90
2019-01-16T13:52:43.584Z,9.90
2019-01-16T13:53:43.600Z,10.80
2019-01-16T13:54:43.563Z,9.80
2019-01-16T13:55:43.553Z,11.70
2019-01-16T13:56:43.584Z,11.30
2019-01-16T13:57:43.543Z,9.80
2019-01-16T13:58:43.520Z,10.10
2019-01-16T13:59:43.505Z,7.10
2019-01-16T14:00:48.597Z,8.20
2019-01-16T14:01:44.505Z,10.50
2019-01-16T14:02:43.474Z,7.60
2019-01-16T14:03:43.468Z,7.70
2019-01-16T14:04:43.600Z,9.00
2019-01-16T14:05:43.441Z,6.60
2019-01-16T14:06:43.461Z,8.90
2019-01-16T14:07:43.425Z,10.90
2019-01-16T14:08:43.415Z,9.40
2019-01-16T14:09:43.410Z,13.90
2019-01-16T14:10:43.383Z,13.70
2019-01-16T14:11:43.397Z,12.70
2019-01-16T14:12:43.365Z,13.60
2019-01-16T14:13:43.351Z,14.50
2019-01-16T14:14:43.340Z,18.30
2019-01-16T14:15:43.353Z,14.80
2019-01-16T14:16:43.347Z,17.40
2019-01-16T14:17:43.304Z,12.20
2019-01-16T14:18:43.295Z,14.30
2019-01-16T14:19:43.285Z,13.90
2019-01-16T14:20:43.273Z,13.10
2019-01-16T14:21:43.286Z,10.10
2019-01-16T14:22:43.257Z,11.50
2019-01-16T14:23:43.238Z,9.00
2019-01-16T14:24:43.226Z,8.90
2019-01-16T14:25:43.225Z,9.70
2019-01-16T14:26:43.321Z,9.30
2019-01-16T14:27:43.200Z,9.50
2019-01-16T14:28:43.181Z,7.80
2019-01-16T14:29:43.174Z,7.90
2019-01-16T14:30:43.181Z,6.00
2019-01-16T14:31:43.178Z,8.00
2019-01-16T14:32:43.167Z,10.20
2019-01-16T14:33:43.508Z,7.50
2019-01-16T14:34:43.123Z,9.80
2019-01-16T14:35:43.104Z,7.80
2019-01-16T14:36:43.094Z,7.80
2019-01-16T14:37:43.118Z,9.10
2019-01-16T14:38:43.100Z,8.20
2019-01-16T14:39:43.088Z,10.60
2019-01-16T14:40:43.048Z,7.50
2019-01-16T14:41:43.061Z,9.40
2019-01-16T14:42:43.075Z,11.10
2019-01-16T14:43:43.015Z,7.00
2019-01-16T14:44:43.015Z,9.50
2019-01-16T14:45:43.000Z,8.30
2019-01-16T14:46:42.990Z,8.00
2019-01-16T14:47:42.997Z,6.50
2019-01-16T14:48:42.977Z,7.10
2019-01-16T14:49:42.952Z,7.80
2019-01-16T14:50:42.938Z,9.00
2019-01-16T14:51:42.928Z,9.10
2019-01-16T14:52:42.939Z,6.70
2019-01-16T14:53:42.904Z,8.80
2019-01-16T14:54:42.891Z,7.80
2019-01-16T14:55:42.892Z,7.80
2019-01-16T14:56:42.876Z,6.80
2019-01-16T14:57:42.881Z,9.00
2019-01-16T14:58:42.875Z,7.20
2019-01-16T14:59:42.844Z,8.60
2019-01-16T15:00:42.833Z,7.20
2019-01-16T15:01:42.817Z,9.60
2019-01-16T15:02:42.831Z,11.00
2019-01-16T15:03:42.793Z,8.50
2019-01-16T15:04:42.782Z,8.20
2019-01-16T15:05:42.770Z,7.70
2019-01-16T15:06:42.764Z,8.80
2019-01-16T15:07:42.779Z,8.50
2019-01-16T15:08:42.738Z,6.80
2019-01-16T15:09:42.770Z,6.70
2019-01-16T15:10:42.730Z,8.30
2019-01-16T15:11:42.707Z,8.60
2019-01-16T15:12:42.717Z,9.20
2019-01-16T15:13:42.686Z,8.20
2019-01-16T15:14:42.672Z,9.40
2019-01-16T15:15:42.695Z,7.90
2019-01-16T15:16:42.657Z,8.10
2019-01-16T15:17:42.659Z,7.20
2019-01-16T15:18:42.639Z,7.80
2019-01-16T15:19:42.630Z,8.10
2019-01-16T15:20:42.605Z,8.70
2019-01-16T15:21:42.629Z,7.00
2019-01-16T15:22:42.646Z,7.20
2019-01-16T15:43:51.726Z,4.60
2019-01-16T15:44:10.860Z,6.80
2019-01-16T15:45:10.848Z,8.10
2019-01-16T15:46:10.840Z,9.00
2019-01-16T15:47:10.831Z,7.20
2019-01-16T15:48:11.008Z,9.10
2019-01-16T15:49:10.805Z,7.70
2019-01-16T15:50:10.801Z,7.80
2019-01-16T15:51:10.791Z,9.50
2019-01-16T15:52:13.097Z,7.90
2019-01-16T15:53:10.768Z,7.00
2019-01-16T15:54:10.772Z,8.80
2019-01-16T15:55:10.742Z,8.30
2019-01-16T15:56:10.729Z,7.40
2019-01-16T15:57:10.718Z,7.20
2019-01-16T15:58:10.719Z,8.70
2019-01-16T15:59:10.719Z,7.60
2019-01-16T16:00:10.694Z,8.00
2019-01-16T16:01:10.675Z,8.80
2019-01-16T16:02:10.664Z,8.70
2019-01-16T16:03:10.654Z,6.40
2019-01-16T16:04:10.684Z,7.40
2019-01-16T16:05:10.633Z,7.30
2019-01-16T16:06:10.628Z,8.70
2019-01-16T16:07:10.624Z,7.00
2019-01-16T16:08:10.600Z,8.40
2019-01-16T16:09:10.613Z,6.70
2019-01-16T16:10:10.588Z,7.20
2019-01-16T16:11:10.566Z,9.50
2019-01-16T16:12:10.561Z,6.90
2019-01-16T16:13:10.546Z,8.90
2019-01-16T16:14:10.583Z,8.60
2019-01-16T16:15:10.524Z,10.50
2019-01-16T16:16:10.535Z,11.00
2019-01-16T16:17:10.556Z,8.40
2019-01-16T16:18:10.490Z,9.40
2019-01-16T16:19:10.504Z,9.20
2019-01-16T16:20:10.469Z,10.50
2019-01-16T16:21:10.460Z,10.80
2019-01-16T16:22:10.452Z,7.50
2019-01-16T16:23:10.437Z,7.20
2019-01-16T16:24:10.448Z,10.60
2019-01-16T16:25:10.417Z,8.70
2019-01-16T16:26:10.403Z,8.40
2019-01-16T16:27:10.394Z,9.10
2019-01-16T16:28:10.414Z,11.30
2019-01-16T16:29:10.400Z,11.30
2019-01-16T16:30:10.361Z,9.40
2019-01-16T16:31:10.352Z,10.50
2019-01-16T16:32:10.340Z,8.70
2019-01-16T16:33:10.328Z,9.50
2019-01-16T16:34:10.385Z,8.10
2019-01-16T16:35:10.308Z,11.80
2019-01-16T16:36:10.298Z,11.70
2019-01-16T16:37:10.284Z,10.60
2019-01-16T16:38:10.275Z,8.50
2019-01-16T16:39:10.286Z,10.10
2019-01-16T16:40:10.270Z,11.00
2019-01-16T16:41:10.241Z,10.80
2019-01-16T16:42:10.243Z,9.10
2019-01-16T16:43:10.220Z,8.90
2019-01-16T16:44:10.363Z,10.30
2019-01-16T16:45:10.203Z,8.40
2019-01-16T16:46:10.192Z,9.70
2019-01-16T16:47:10.184Z,9.50
2019-01-16T16:48:10.169Z,10.90
2019-01-16T16:49:10.156Z,9.50
2019-01-16T16:50:10.172Z,9.00
2019-01-16T16:51:10.137Z,12.10
2019-01-16T16:52:10.127Z,12.40
2019-01-16T16:53:10.119Z,10.00
2019-01-16T16:54:10.102Z,7.70
2019-01-16T16:55:10.116Z,12.70
2019-01-16T16:56:10.081Z,9.20
2019-01-16T16:57:10.072Z,9.20
2019-01-16T16:58:10.083Z,10.70
2019-01-16T16:59:10.052Z,7.90
2019-01-16T17:00:10.063Z,10.40
2019-01-16T17:01:10.027Z,10.30
2019-01-16T17:02:10.016Z,9.50
2019-01-16T17:03:10.005Z,9.40
2019-01-16T17:04:10.000Z,7.80
2019-01-16T17:05:10.010Z,10.60
2019-01-16T17:06:09.973Z,10.10
2019-01-16T17:07:09.963Z,10.90
2019-01-16T17:08:09.955Z,11.80
2019-01-16T17:09:09.941Z,8.70
2019-01-16T17:10:09.979Z,9.60
2019-01-16T17:11:09.920Z,8.80
2019-01-16T17:12:09.908Z,8.30
2019-01-16T17:13:09.898Z,8.40
2019-01-16T17:14:09.888Z,8.20
2019-01-16T17:15:09.906Z,9.80
2019-01-16T17:16:09.876Z,8.50
2019-01-16T17:17:09.857Z,8.00
2019-01-16T17:18:09.843Z,7.70
2019-01-16T17:19:09.833Z,8.20
2019-01-16T17:20:09.848Z,10.50
2019-01-16T17:21:09.812Z,8.10
2019-01-16T17:22:09.805Z,10.00
2019-01-16T17:23:09.790Z,9.00
2019-01-16T17:24:09.781Z,9.80
2019-01-16T17:25:09.795Z,9.90
2019-01-16T17:26:09.757Z,6.90
2019-01-16T17:27:09.747Z,11.10
2019-01-16T17:28:09.771Z,8.20
2019-01-16T17:29:10.311Z,9.70
2019-01-16T17:30:09.740Z,10.70
2019-01-16T17:31:09.864Z,7.60
2019-01-16T17:32:09.696Z,8.90
2019-01-16T17:33:09.682Z,9.30
2019-01-16T17:34:09.692Z,7.40
2019-01-16T17:35:09.697Z,8.10
2019-01-16T17:36:09.650Z,8.70
2019-01-16T17:37:09.642Z,7.80
2019-01-16T17:38:09.631Z,9.20
2019-01-16T17:39:09.618Z,8.60
2019-01-16T17:40:09.622Z,7.40
2019-01-16T17:41:09.619Z,8.20
2019-01-16T17:42:09.587Z,8.10
2019-01-16T17:43:09.573Z,8.20
2019-01-16T17:44:09.570Z,7.90
2019-01-16T17:45:09.553Z,6.80
2019-01-16T17:46:09.575Z,10.00
2019-01-16T17:47:09.531Z,8.60
2019-01-16T17:48:09.567Z,8.50
2019-01-16T17:49:09.512Z,7.10
2019-01-16T17:50:09.501Z,8.20
2019-01-16T17:51:09.515Z,8.60
2019-01-16T17:52:09.489Z,13.40
2019-01-16T17:53:09.467Z,12.30
2019-01-16T17:54:09.461Z,12.00
2019-01-16T17:55:09.445Z,14.00
2019-01-16T17:56:09.459Z,10.40
2019-01-16T17:57:09.423Z,14.00
2019-01-16T17:58:09.422Z,8.70
2019-01-16T17:59:09.412Z,8.70
2019-01-16T18:00:09.391Z,10.90
2019-01-16T18:01:09.403Z,9.90
2019-01-16T18:02:09.369Z,8.20
2019-01-16T18:03:09.358Z,8.90
2019-01-16T18:04:09.350Z,7.80
2019-01-16T18:05:09.351Z,7.40
2019-01-16T18:06:09.349Z,9.30
2019-01-16T18:07:09.317Z,11.40
2019-01-16T18:08:09.305Z,16.50
2019-01-16T18:09:09.294Z,19.00
2019-01-16T18:10:09.284Z,17.60
2019-01-16T18:11:09.311Z,15.70
2019-01-16T18:12:09.307Z,14.00
2019-01-16T18:13:09.253Z,12.90
2019-01-16T18:14:09.240Z,10.00
2019-01-16T18:15:09.231Z,11.00
2019-01-16T18:16:09.242Z,11.30
2019-01-16T18:17:09.215Z,14.20
2019-01-16T18:18:09.203Z,13.60
2019-01-16T18:19:09.194Z,14.10
2019-01-16T18:20:09.185Z,16.90
2019-01-16T18:21:09.188Z,11.40
2019-01-16T18:22:09.154Z,11.00
2019-01-16T18:23:09.143Z,12.80
2019-01-16T18:24:09.144Z,9.40
2019-01-16T18:25:09.121Z,8.90
2019-01-16T18:26:09.168Z,9.30
2019-01-16T18:27:09.099Z,9.50
2019-01-16T18:28:09.091Z,10.40
2019-01-16T18:29:09.092Z,7.80
2019-01-16T18:30:09.079Z,9.90
2019-01-16T18:31:09.059Z,9.10
2019-01-16T18:32:09.077Z,10.50
2019-01-16T18:33:09.037Z,10.90
2019-01-16T18:34:09.028Z,10.00
2019-01-16T18:35:09.015Z,9.30
2019-01-16T18:36:09.021Z,11.10
2019-01-16T18:37:09.018Z,11.20
2019-01-16T18:38:08.984Z,10.70
2019-01-16T18:39:08.971Z,9.90
2019-01-16T18:40:08.962Z,7.90
2019-01-16T18:41:08.950Z,10.40
2019-01-16T18:42:08.968Z,10.20
2019-01-16T18:43:08.928Z,8.70
2019-01-16T18:44:08.920Z,11.30
2019-01-16T18:45:08.906Z,8.90
2019-01-16T18:46:08.900Z,11.60
2019-01-16T18:47:08.909Z,7.90
2019-01-16T18:48:08.885Z,8.30
2019-01-16T18:49:08.865Z,9.50
2019-01-16T18:50:08.855Z,10.50
2019-01-16T18:51:08.881Z,10.30
2019-01-16T18:52:08.858Z,9.40
2019-01-16T18:53:08.821Z,12.20
2019-01-16T18:54:08.817Z,8.60
2019-01-16T18:55:08.799Z,11.10
2019-01-16T18:56:08.788Z,11.70
2019-01-16T18:57:08.810Z,11.40
2019-01-16T18:58:08.767Z,12.30
2019-01-16T18:59:08.756Z,13.30
2019-01-16T19:00:08.746Z,11.00
2019-01-16T19:01:08.753Z,12.90
2019-01-16T19:02:08.754Z,11.30
2019-01-16T19:03:08.714Z,10.70
2019-01-16T19:04:08.705Z,10.60
2019-01-16T19:05:08.695Z,9.40
2019-01-16T19:06:08.682Z,10.00
2019-01-16T19:07:08.710Z,9.20
2019-01-16T19:08:08.661Z,9.90
2019-01-16T19:09:08.649Z,11.40
2019-01-16T19:10:08.638Z,9.60
2019-01-16T19:11:08.628Z,11.00
2019-01-16T19:12:08.642Z,13.80
2019-01-16T19:13:08.632Z,20.90
2019-01-16T19:14:08.596Z,24.20
2019-01-16T19:15:08.586Z,25.90
2019-01-16T19:16:08.576Z,19.50
2019-01-16T19:17:08.588Z,19.80
2019-01-16T19:18:08.554Z,15.50
2019-01-16T19:19:08.557Z,16.20
2019-01-16T19:20:08.536Z,14.90
2019-01-16T19:21:08.519Z,14.20
2019-01-16T19:22:08.571Z,12.60
2019-01-16T19:23:08.500Z,11.30
2019-01-16T19:24:08.488Z,12.70
2019-01-16T19:25:08.497Z,9.90
2019-01-16T19:26:08.467Z,12.00
2019-01-16T19:27:08.456Z,11.50
2019-01-16T19:28:08.468Z,10.10
2019-01-16T19:29:08.434Z,10.60
2019-01-16T19:30:08.423Z,9.40
2019-01-16T19:31:08.429Z,10.20
2019-01-16T19:32:08.401Z,8.60
2019-01-16T19:33:08.418Z,11.50
2019-01-16T19:34:08.379Z,9.20
2019-01-16T19:35:08.368Z,10.20
2019-01-16T19:36:08.359Z,9.20
2019-01-16T19:37:08.352Z,10.40
2019-01-16T19:38:08.386Z,11.60
2019-01-16T19:39:08.392Z,11.50
2019-01-16T19:40:08.316Z,11.00
2019-01-16T19:41:08.308Z,12.10
2019-01-16T19:42:08.305Z,9.70
2019-01-16T19:43:08.328Z,16.00
2019-01-16T19:44:08.276Z,24.70
2019-01-16T19:45:08.275Z,26.20
2019-01-16T19:46:08.252Z,26.70
2019-01-16T19:47:08.242Z,27.20
2019-01-16T19:48:08.262Z,30.80
2019-01-16T19:49:08.229Z,27.60
2019-01-16T19:50:08.218Z,35.50
2019-01-16T19:51:08.196Z,23.50
2019-01-16T19:52:08.185Z,21.30
2019-01-16T19:53:08.200Z,15.90
2019-01-16T19:54:08.163Z,14.40
2019-01-16T19:55:08.166Z,12.50
2019-01-16T19:56:08.160Z,11.20
2019-01-16T19:57:08.133Z,12.50
2019-01-16T19:58:08.147Z,11.10
2019-01-16T19:59:08.110Z,12.40
2019-01-16T20:00:08.101Z,11.50
2019-01-16T20:01:08.090Z,13.80
2019-01-16T20:02:08.095Z,13.10
2019-01-16T20:03:08.088Z,9.50
2019-01-16T20:04:08.058Z,9.40
2019-01-16T20:05:08.047Z,10.10
2019-01-16T20:06:08.036Z,11.10
2019-01-16T20:07:08.022Z,14.60
2019-01-16T20:08:08.046Z,15.30
2019-01-16T20:09:08.004Z,17.50
2019-01-16T20:10:07.993Z,19.50
2019-01-16T20:11:07.985Z,12.50
2019-01-16T20:12:07.970Z,12.30
2019-01-16T20:13:07.986Z,12.20
2019-01-16T20:14:07.948Z,10.80
2019-01-16T20:15:07.945Z,11.60
2019-01-16T20:16:07.927Z,10.90
2019-01-16T20:17:07.916Z,9.10
2019-01-16T20:18:07.904Z,11.30
2019-01-16T20:19:07.916Z,9.10
2019-01-16T20:20:07.884Z,10.60
2019-01-16T20:21:07.879Z,9.70
2019-01-16T20:22:07.860Z,8.90
2019-01-16T20:23:11.210Z,10.10
2019-01-16T20:24:07.861Z,11.20
2019-01-16T20:25:07.833Z,10.00
2019-01-16T20:26:07.817Z,9.20
2019-01-16T20:27:07.815Z,8.30
2019-01-16T20:28:07.796Z,10.50
2019-01-16T20:29:07.809Z,9.60
2019-01-16T20:30:07.773Z,9.90
2019-01-16T20:31:07.769Z,9.40
2019-01-16T20:32:07.751Z,11.20
2019-01-16T20:33:07.757Z,8.30
2019-01-16T20:34:07.752Z,9.80
2019-01-16T20:35:10.018Z,9.30
2019-01-16T20:36:07.710Z,8.80
2019-01-16T20:37:07.698Z,9.20
2019-01-16T20:38:07.686Z,9.80
2019-01-16T20:39:07.731Z,9.10
2019-01-16T20:40:07.673Z,8.70
2019-01-16T20:41:07.660Z,8.60
2019-01-16T20:42:08.599Z,9.50
2019-01-16T20:43:07.642Z,8.90
2019-01-16T20:44:07.620Z,8.40
2019-01-16T20:45:07.633Z,8.40
2019-01-16T20:46:07.604Z,8.80
2019-01-16T20:47:07.588Z,8.80
2019-01-16T20:48:07.577Z,9.90
2019-01-16T20:49:07.565Z,8.90
2019-01-16T20:50:07.584Z,9.30
2019-01-16T20:51:07.551Z,10.90
2019-01-16T20:52:07.533Z,9.90
2019-01-16T20:53:07.521Z,8.50
2019-01-16T20:54:07.510Z,9.20
2019-01-16T20:55:07.528Z,11.20
2019-01-16T20:56:07.494Z,9.80
2019-01-16T20:57:07.488Z,10.00
2019-01-16T20:58:07.479Z,11.50
2019-01-16T20:59:07.455Z,10.00
2019-01-16T21:00:07.500Z,9.50
2019-01-16T21:01:07.432Z,12.50
2019-01-16T21:02:07.424Z,9.50
2019-01-16T21:03:07.413Z,8.00
2019-01-16T21:04:07.402Z,9.20
2019-01-16T21:05:07.402Z,9.80
2019-01-16T21:06:07.404Z,10.00
2019-01-16T21:07:07.375Z,10.80
2019-01-16T21:08:07.363Z,11.70
2019-01-16T21:09:07.359Z,9.50
2019-01-16T21:10:07.350Z,8.70
2019-01-16T21:11:07.366Z,9.30
2019-01-16T21:12:07.341Z,8.80
2019-01-16T21:13:07.303Z,8.20
2019-01-16T21:14:07.294Z,8.40
2019-01-16T21:15:07.285Z,10.50
2019-01-16T21:16:07.273Z,10.10
2019-01-16T21:17:07.281Z,8.40
2019-01-16T21:18:07.279Z,9.00
2019-01-16T21:19:07.250Z,8.60
2019-01-16T21:20:07.236Z,10.10
2019-01-16T21:21:07.216Z,9.00
2019-01-16T21:22:07.242Z,8.30
2019-01-16T21:23:07.193Z,9.60
2019-01-16T21:24:07.210Z,9.90
2019-01-16T21:25:07.170Z,10.20
2019-01-16T21:26:07.177Z,7.80
2019-01-16T21:27:07.173Z,8.50
2019-01-16T21:28:07.136Z,8.50
2019-01-16T21:29:07.132Z,9.60
2019-01-16T21:30:07.139Z,9.70
2019-01-16T21:31:07.105Z,12.60
2019-01-16T21:32:07.116Z,9.60
2019-01-16T21:33:10.470Z,9.80
2019-01-16T21:34:07.073Z,11.40
2019-01-16T21:35:07.091Z,9.50
2019-01-16T21:36:07.064Z,10.30
2019-01-16T21:37:07.074Z,8.10
2019-01-16T21:38:07.027Z,10.30
2019-01-16T21:39:07.018Z,11.10
2019-01-16T21:40:07.007Z,10.00
2019-01-16T21:41:06.992Z,10.20
2019-01-16T21:42:06.982Z,9.50
2019-01-16T21:43:07.001Z,9.80
2019-01-16T21:44:06.965Z,9.40
2019-01-16T21:45:06.952Z,10.40
2019-01-16T21:46:06.941Z,9.60
2019-01-16T21:47:06.929Z,9.40
2019-01-16T21:48:06.959Z,9.30
2019-01-16T21:49:06.920Z,9.10
2019-01-16T21:50:06.917Z,9.30
2019-01-16T21:51:06.886Z,11.50
2019-01-16T21:52:06.875Z,10.90